EGKK - London / Gatwick Airport
Distance from station: E 5mi, 14km
Updated: 12/12/2017 2:50pm
Light rain, Mostly cloudy
Light rain, Mostly cloudy
 Wind from SSW
Wind: SSW 8 mph , 13 km/h
Temperature: 45°F , 7°C
Wind Chill: 41°F , 5°C
Dew Point: 41°F , 5°C
Humidity: 87%
Barometer: 29.71 inHg , 1006 hPa
Summary: Light Rain
Clouds: Mostly Cloudy
Visibility: 6 miles , 10 km
Cloud details: Few Clouds 1700 ft
Partly Cloudy 2300 ft
Mostly Cloudy 2900 ft
2017/12/12 22:50 EGKK 122250Z 20007KT 9999 -RA FEW017 SCT023 BKN029 07/05 Q1006